createdAt,value
2022-11-19T00:01:08.577Z,1.10
2022-11-19T00:04:13.921Z,1.50
2022-11-19T00:07:17.567Z,1.67
2022-11-19T00:10:20.747Z,1.70
2022-11-19T00:13:24.360Z,1.97
2022-11-19T00:16:27.747Z,1.77
2022-11-19T00:19:33.096Z,2.00
2022-11-19T00:22:36.367Z,2.53
2022-11-19T00:25:39.674Z,3.23
2022-11-19T00:28:44.839Z,1.92
2022-11-19T00:31:48.321Z,1.50
2022-11-19T00:34:53.230Z,1.80
2022-11-19T00:37:56.959Z,1.70
2022-11-19T00:41:00.574Z,2.00
2022-11-19T00:44:04.060Z,2.08
2022-11-19T00:47:07.540Z,1.48
2022-11-19T00:50:12.723Z,1.42
2022-11-19T00:53:17.336Z,1.48
2022-11-19T00:56:23.698Z,1.30
2022-11-19T00:59:27.202Z,1.50
2022-11-19T01:02:30.500Z,1.30
2022-11-19T01:05:35.353Z,1.33
2022-11-19T01:08:39.452Z,1.10
2022-11-19T01:11:43.077Z,1.40
2022-11-19T01:14:47.066Z,1.50
2022-11-19T01:17:50.450Z,0.82
2022-11-19T01:20:58.078Z,1.20
2022-11-19T01:24:02.203Z,1.30
2022-11-19T01:27:05.378Z,1.00
2022-11-19T01:30:11.208Z,1.00
2022-11-19T01:33:14.712Z,1.15
2022-11-19T01:36:22.916Z,1.20
2022-11-19T01:39:26.327Z,1.13
2022-11-19T01:42:50.970Z,0.98
2022-11-19T01:49:04.494Z,0.80
2022-11-19T01:52:09.963Z,0.93
2022-11-19T01:55:14.070Z,1.00
2022-11-19T02:01:25.133Z,0.90
2022-11-19T02:04:31.395Z,0.93
2022-11-19T02:07:39.333Z,0.90
2022-11-19T02:10:54.802Z,0.88
2022-11-19T02:14:15.523Z,1.10
2022-11-19T02:17:30.697Z,0.88
2022-11-19T02:20:49.945Z,0.80
2022-11-19T02:24:52.013Z,0.98
2022-11-19T02:28:32.711Z,0.70
2022-11-19T02:31:43.558Z,0.60
2022-11-19T02:34:54.545Z,1.00
2022-11-19T02:38:06.985Z,0.90
2022-11-19T02:41:36.575Z,0.93
2022-11-19T02:45:00.874Z,0.93
2022-11-19T02:48:13.882Z,1.17
2022-11-19T02:51:20.053Z,0.65
2022-11-19T02:54:23.460Z,0.88
2022-11-19T02:57:27.053Z,0.85
2022-11-19T03:00:57.064Z,0.88
2022-11-19T03:04:19.310Z,0.80
2022-11-19T03:07:23.574Z,0.70
2022-11-19T03:10:37.799Z,0.80
2022-11-19T03:14:13.965Z,0.60
2022-11-19T03:17:28.127Z,0.65
2022-11-19T03:20:39.714Z,0.65
2022-11-19T03:23:50.556Z,0.60
2022-11-19T03:27:02.162Z,0.77
2022-11-19T03:30:08.436Z,0.70
2022-11-19T03:33:19.839Z,0.70
2022-11-19T03:36:36.339Z,0.90
2022-11-19T03:39:42.173Z,0.80
2022-11-19T03:42:50.202Z,0.80
2022-11-19T03:45:56.571Z,0.77
2022-11-19T03:49:03.339Z,0.70
2022-11-19T03:52:13.702Z,0.80
2022-11-19T03:55:17.417Z,0.60
2022-11-19T03:58:25.639Z,0.50
2022-11-19T04:01:29.347Z,0.60
2022-11-19T04:04:39.082Z,0.63
2022-11-19T04:07:43.685Z,0.47
2022-11-19T04:10:47.310Z,0.70
2022-11-19T04:13:50.704Z,0.60
2022-11-19T04:16:54.901Z,0.60
2022-11-19T04:19:58.227Z,0.60
2022-11-19T04:23:03.043Z,0.70
2022-11-19T04:26:06.552Z,0.60
2022-11-19T04:29:09.954Z,0.65
2022-11-19T04:32:13.455Z,0.85
2022-11-19T04:35:18.277Z,0.60
2022-11-19T04:38:23.401Z,0.50
2022-11-19T04:41:27.006Z,0.52
2022-11-19T04:44:30.332Z,0.50
2022-11-19T04:47:33.921Z,0.60
2022-11-19T04:50:37.468Z,0.52
2022-11-19T04:53:42.477Z,0.70
2022-11-19T04:56:46.166Z,0.60
2022-11-19T04:59:49.761Z,0.70
2022-11-19T05:02:53.688Z,0.77
2022-11-19T05:05:57.017Z,0.70
2022-11-19T05:09:01.890Z,0.60
2022-11-19T05:12:06.011Z,0.50
2022-11-19T05:15:11.031Z,0.50
2022-11-19T05:18:14.846Z,0.30
2022-11-19T05:21:18.498Z,0.68
2022-11-19T05:24:23.512Z,0.50
2022-11-19T05:27:26.802Z,0.88
2022-11-19T05:30:32.822Z,0.70
2022-11-19T05:33:40.810Z,0.95
2022-11-19T05:36:45.987Z,0.70
2022-11-19T05:39:54.249Z,0.57
2022-11-19T05:43:08.806Z,0.52
2022-11-19T05:46:13.928Z,0.57
2022-11-19T05:49:22.329Z,0.57
2022-11-19T05:52:29.530Z,0.60
2022-11-19T05:55:42.163Z,0.40
2022-11-19T05:58:48.037Z,0.90
2022-11-19T06:02:01.566Z,0.70
2022-11-19T06:05:13.856Z,0.50
2022-11-19T06:08:18.162Z,0.90
2022-11-19T06:11:54.760Z,0.50
2022-11-19T06:14:58.780Z,0.60
2022-11-19T06:18:02.821Z,0.40
2022-11-19T06:21:11.937Z,0.70
2022-11-19T06:24:16.374Z,0.75
2022-11-19T06:27:21.281Z,0.70
2022-11-19T06:30:25.279Z,0.90
2022-11-19T06:36:38.738Z,0.70
2022-11-19T06:39:43.868Z,0.93
2022-11-19T06:42:51.099Z,1.00
2022-11-19T06:45:54.583Z,0.75
2022-11-19T06:48:58.083Z,1.13
2022-11-19T06:52:01.561Z,0.50
2022-11-19T06:55:05.864Z,1.00
2022-11-19T06:58:11.231Z,0.70
2022-11-19T07:01:15.719Z,0.85
2022-11-19T07:04:19.186Z,0.65
2022-11-19T07:07:23.138Z,0.88
2022-11-19T07:10:26.795Z,1.02
2022-11-19T07:13:45.637Z,0.93
2022-11-19T07:16:49.026Z,1.00
2022-11-19T07:19:53.183Z,0.95
2022-11-19T07:22:59.389Z,0.80
2022-11-19T07:26:03.348Z,0.85
2022-11-19T07:29:09.696Z,0.70
2022-11-19T07:32:13.114Z,0.88
2022-11-19T07:35:16.810Z,0.82
2022-11-19T07:38:20.021Z,1.00
2022-11-19T07:41:42.476Z,0.90
2022-11-19T07:44:49.773Z,1.02
2022-11-19T07:47:57.442Z,0.73
2022-11-19T07:51:00.821Z,0.98
2022-11-19T07:54:04.724Z,1.10
2022-11-19T07:57:09.090Z,1.17
2022-11-19T08:00:16.150Z,0.80
2022-11-19T08:03:19.773Z,0.90
2022-11-19T08:06:25.129Z,1.35
2022-11-19T08:09:28.590Z,1.10
2022-11-19T08:12:31.997Z,1.35
2022-11-19T08:15:36.936Z,1.10
2022-11-19T08:18:39.806Z,1.20
2022-11-19T08:21:46.193Z,1.02
2022-11-19T08:24:49.813Z,1.02
2022-11-19T08:27:53.228Z,1.10
2022-11-19T08:30:58.930Z,0.85
2022-11-19T08:34:03.489Z,1.00
2022-11-19T08:37:08.113Z,1.48
2022-11-19T08:40:16.215Z,1.40
2022-11-19T08:43:19.917Z,1.40
2022-11-19T08:46:24.428Z,1.80
2022-11-19T08:49:28.069Z,1.63
2022-11-19T08:52:31.359Z,1.10
2022-11-19T08:55:34.868Z,1.10
2022-11-19T08:58:38.449Z,1.27
2022-11-19T09:01:43.169Z,1.15
2022-11-19T09:04:48.487Z,0.98
2022-11-19T09:07:52.316Z,0.73
2022-11-19T09:10:55.948Z,1.10
2022-11-19T09:13:59.638Z,0.93
2022-11-19T09:17:04.868Z,1.10
2022-11-19T09:20:13.421Z,0.80
2022-11-19T09:23:18.325Z,0.85
2022-11-19T09:26:22.284Z,1.00
2022-11-19T09:32:31.312Z,1.10
2022-11-19T09:35:34.996Z,1.17
2022-11-19T09:38:39.823Z,1.23
2022-11-19T09:41:53.187Z,1.25
2022-11-19T09:45:21.055Z,1.20
2022-11-19T09:48:36.221Z,1.10
2022-11-19T09:51:47.426Z,0.90
2022-11-19T09:54:55.511Z,1.08
2022-11-19T09:58:01.283Z,1.38
2022-11-19T10:01:07.519Z,1.10
2022-11-19T10:04:13.816Z,0.88
2022-11-19T10:07:30.868Z,0.77
2022-11-19T10:10:43.238Z,1.15
2022-11-19T10:14:01.146Z,1.40
2022-11-19T10:17:18.906Z,1.00
2022-11-19T10:20:46.979Z,1.27
2022-11-19T10:23:56.227Z,0.90
2022-11-19T10:27:08.538Z,1.30
2022-11-19T10:30:19.171Z,1.27
2022-11-19T10:33:30.664Z,1.10
2022-11-19T10:36:44.913Z,1.05
2022-11-19T10:39:56.812Z,1.70
2022-11-19T10:43:24.601Z,1.13
2022-11-19T10:46:30.354Z,0.82
2022-11-19T10:49:45.350Z,0.80
2022-11-19T10:52:55.208Z,0.80
2022-11-19T10:56:04.740Z,0.90
2022-11-19T10:59:16.416Z,0.65
2022-11-19T11:02:29.637Z,0.65
2022-11-19T11:05:58.329Z,0.88
2022-11-19T11:09:03.611Z,0.80
2022-11-19T11:12:34.191Z,1.00
2022-11-19T11:15:45.697Z,1.00
2022-11-19T11:18:51.044Z,0.77
2022-11-19T11:21:57.205Z,0.52
2022-11-19T11:25:07.347Z,0.63
2022-11-19T11:28:18.448Z,0.63
2022-11-19T11:31:36.379Z,0.57
2022-11-19T11:34:45.442Z,0.90
2022-11-19T11:37:50.350Z,0.80
2022-11-19T11:44:33.799Z,0.70
2022-11-19T11:47:40.695Z,0.88
2022-11-19T11:50:47.454Z,0.88
2022-11-19T11:54:07.445Z,0.90
2022-11-19T11:57:19.773Z,0.68
2022-11-19T12:00:36.760Z,0.70
2022-11-19T12:03:55.948Z,0.80
2022-11-19T12:07:14.452Z,0.47
2022-11-19T12:10:35.294Z,0.63
2022-11-19T12:13:59.908Z,0.50
2022-11-19T12:20:44.790Z,0.70
2022-11-19T12:24:08.085Z,1.17
2022-11-19T12:27:24.066Z,0.60
2022-11-19T12:30:38.521Z,0.50
2022-11-19T12:34:13.626Z,0.50
2022-11-19T12:37:42.040Z,0.70
2022-11-19T12:40:59.129Z,0.80
2022-11-19T12:44:11.891Z,0.50
2022-11-19T12:47:36.909Z,0.80
2022-11-19T12:50:56.061Z,0.45
2022-11-19T12:54:28.907Z,0.75
2022-11-19T12:57:50.283Z,0.40
2022-11-19T13:01:00.436Z,0.73
2022-11-19T13:04:15.359Z,0.73
2022-11-19T13:07:24.577Z,0.50
2022-11-19T13:10:34.803Z,0.70
2022-11-19T13:13:44.936Z,0.68
2022-11-19T13:16:49.265Z,0.68
2022-11-19T13:20:04.595Z,0.50
2022-11-19T13:23:17.587Z,0.60
2022-11-19T13:26:27.230Z,0.43
2022-11-19T13:29:40.747Z,0.50
2022-11-19T13:32:54.247Z,0.67
2022-11-19T13:36:06.571Z,0.60
2022-11-19T13:39:24.336Z,0.75
2022-11-19T13:42:58.945Z,0.82
2022-11-19T13:46:22.928Z,0.77
2022-11-19T13:49:33.796Z,0.70
2022-11-19T13:52:47.753Z,0.68
2022-11-19T13:55:58.311Z,0.80
2022-11-19T13:59:02.338Z,1.77
2022-11-19T14:02:53.277Z,0.60
2022-11-19T14:06:34.308Z,0.50
2022-11-19T14:09:51.772Z,0.60
2022-11-19T14:13:15.848Z,0.38
2022-11-19T14:16:51.224Z,0.40
2022-11-19T14:20:16.112Z,0.60
2022-11-19T14:24:04.369Z,0.55
2022-11-19T14:27:21.541Z,0.40
2022-11-19T14:31:05.393Z,0.77
2022-11-19T14:34:28.073Z,0.60
2022-11-19T14:37:42.640Z,0.50
2022-11-19T14:40:47.078Z,0.40
2022-11-19T14:44:12.981Z,0.50
2022-11-19T14:47:40.049Z,0.60
2022-11-19T14:50:43.850Z,0.70
2022-11-19T14:53:52.785Z,0.73
2022-11-19T14:57:25.372Z,0.70
2022-11-19T15:00:34.575Z,0.70
2022-11-19T15:03:39.900Z,0.55
2022-11-19T15:06:46.892Z,0.57
2022-11-19T15:10:30.376Z,0.57
2022-11-19T15:13:37.525Z,0.70
2022-11-19T15:16:42.791Z,0.80
2022-11-19T15:20:09.635Z,0.60
2022-11-19T15:23:25.328Z,0.63
2022-11-19T15:26:41.642Z,0.80
2022-11-19T15:30:12.489Z,1.10
2022-11-19T15:33:52.834Z,0.80
2022-11-19T15:37:01.642Z,0.50
2022-11-19T15:40:12.194Z,0.82
2022-11-19T15:43:25.558Z,0.77
2022-11-19T15:46:39.724Z,1.10
2022-11-19T15:49:46.165Z,0.70
2022-11-19T15:53:01.660Z,0.70
2022-11-19T15:56:13.020Z,0.63
2022-11-19T15:59:20.080Z,0.70
2022-11-19T16:02:35.096Z,0.60
2022-11-19T16:05:38.517Z,0.65
2022-11-19T16:08:46.322Z,0.80
2022-11-19T16:12:07.943Z,0.43
2022-11-19T16:15:41.832Z,0.63
2022-11-19T16:18:49.616Z,0.63
2022-11-19T16:21:59.204Z,0.70
2022-11-19T16:25:13.360Z,0.60
2022-11-19T16:28:21.147Z,0.70
2022-11-19T16:31:31.832Z,1.00
2022-11-19T16:34:37.642Z,0.80
2022-11-19T16:37:42.296Z,0.88
2022-11-19T16:41:05.031Z,0.77
2022-11-19T16:44:14.814Z,0.90
2022-11-19T16:47:26.902Z,0.80
2022-11-19T16:50:33.294Z,1.38
2022-11-19T16:53:47.917Z,0.93
2022-11-19T16:56:52.631Z,0.65
2022-11-19T16:59:59.431Z,1.00
2022-11-19T17:03:18.907Z,0.77
2022-11-19T17:06:25.798Z,0.80
2022-11-19T17:09:44.537Z,1.02
2022-11-19T17:12:55.427Z,0.98
2022-11-19T17:16:18.757Z,1.13
2022-11-19T17:19:27.931Z,1.10
2022-11-19T17:22:36.665Z,0.90
2022-11-19T17:25:49.058Z,0.60
2022-11-19T17:29:04.012Z,0.80
2022-11-19T17:32:07.452Z,0.82
2022-11-19T17:35:35.010Z,1.42
2022-11-19T17:38:38.817Z,0.98
2022-11-19T17:42:03.008Z,1.10
2022-11-19T17:45:11.040Z,1.17
2022-11-19T17:48:25.560Z,1.08
2022-11-19T17:51:29.139Z,1.33
2022-11-19T17:54:33.465Z,0.93
2022-11-19T17:57:42.366Z,0.90
2022-11-19T18:00:48.249Z,1.17
2022-11-19T18:03:51.552Z,1.05
2022-11-19T18:06:55.074Z,1.00
2022-11-19T18:09:58.992Z,0.85
2022-11-19T18:16:15.384Z,0.88
2022-11-19T18:19:26.602Z,1.13
2022-11-19T18:22:30.802Z,0.90
2022-11-19T18:25:34.107Z,1.00
2022-11-19T18:28:38.701Z,1.00
2022-11-19T18:31:48.972Z,1.00
2022-11-19T18:34:52.962Z,1.08
2022-11-19T18:37:56.619Z,1.05
2022-11-19T18:41:00.303Z,1.20
2022-11-19T18:44:22.558Z,0.75
2022-11-19T18:47:28.292Z,0.98
2022-11-19T18:50:32.915Z,0.95
2022-11-19T18:53:36.533Z,0.93
2022-11-19T18:59:44.064Z,0.70
2022-11-19T19:02:49.102Z,0.82
2022-11-19T19:05:52.971Z,0.70
2022-11-19T19:08:56.183Z,0.73
2022-11-19T19:12:17.186Z,0.83
2022-11-19T19:15:20.622Z,1.00
2022-11-19T19:18:27.070Z,1.10
2022-11-19T19:21:30.910Z,1.17
2022-11-19T19:24:34.753Z,1.17
2022-11-19T19:27:38.794Z,1.42
2022-11-19T19:33:47.342Z,1.42
2022-11-19T19:36:53.409Z,1.30
2022-11-19T19:39:57.191Z,1.15
2022-11-19T19:43:03.164Z,1.58
2022-11-19T19:46:09.054Z,1.20
2022-11-19T19:49:14.154Z,1.00
2022-11-19T19:52:17.552Z,1.08
2022-11-19T19:55:20.956Z,1.05
2022-11-19T19:58:27.930Z,1.10
2022-11-19T20:01:34.295Z,0.80
2022-11-19T20:04:39.547Z,0.68
2022-11-19T20:07:43.350Z,0.85
2022-11-19T20:10:48.820Z,0.82
2022-11-19T20:13:53.041Z,0.90
2022-11-19T20:16:56.637Z,0.60
2022-11-19T20:20:01.763Z,0.85
2022-11-19T20:23:05.577Z,0.82
2022-11-19T20:26:13.992Z,0.70
2022-11-19T20:29:20.422Z,0.70
2022-11-19T20:32:24.408Z,0.82
2022-11-19T20:35:29.927Z,0.90
2022-11-19T20:38:33.868Z,0.65
2022-11-19T20:44:58.582Z,0.65
2022-11-19T20:48:02.494Z,0.70
2022-11-19T20:51:09.372Z,0.80
2022-11-19T20:54:13.778Z,0.90
2022-11-19T20:57:18.399Z,0.50
2022-11-19T21:00:21.828Z,0.95
2022-11-19T21:03:25.379Z,0.88
2022-11-19T21:06:30.545Z,0.77
2022-11-19T21:09:34.563Z,0.70
2022-11-19T21:16:06.551Z,0.88
2022-11-19T21:19:11.574Z,1.20
2022-11-19T21:22:16.528Z,1.13
2022-11-19T21:25:20.638Z,1.00
2022-11-19T21:31:38.044Z,1.23
2022-11-19T21:34:41.996Z,1.05
2022-11-19T21:37:47.385Z,1.10
2022-11-19T21:40:52.709Z,1.00
2022-11-19T21:43:56.205Z,0.90
2022-11-19T21:46:59.796Z,0.80
2022-11-19T21:50:03.200Z,1.10
2022-11-19T21:53:08.505Z,0.80
2022-11-19T21:56:11.943Z,0.88
2022-11-19T21:59:15.324Z,0.82
2022-11-19T22:02:18.632Z,0.70
2022-11-19T22:05:22.934Z,0.80
2022-11-19T22:08:31.869Z,1.08
2022-11-19T22:11:35.705Z,0.90
2022-11-19T22:14:39.518Z,0.82
2022-11-19T22:17:43.216Z,0.93
2022-11-19T22:20:46.705Z,0.90
2022-11-19T22:23:52.693Z,0.75
2022-11-19T22:26:56.139Z,0.63
2022-11-19T22:30:04.420Z,0.60
2022-11-19T22:33:09.120Z,0.85
2022-11-19T22:36:12.899Z,0.88
2022-11-19T22:39:18.772Z,0.80
2022-11-19T22:42:22.196Z,1.00
2022-11-19T22:45:25.545Z,0.70
2022-11-19T22:48:30.121Z,0.85
2022-11-19T22:51:33.704Z,0.85
2022-11-19T22:54:41.800Z,0.90
2022-11-19T22:57:45.522Z,0.70
2022-11-19T23:00:50.707Z,0.80
2022-11-19T23:03:55.817Z,0.85
2022-11-19T23:06:59.368Z,0.50
2022-11-19T23:10:04.559Z,0.80
2022-11-19T23:13:25.950Z,0.55
2022-11-19T23:16:29.249Z,1.00
2022-11-19T23:19:32.759Z,0.60
2022-11-19T23:22:36.260Z,0.80
2022-11-19T23:25:41.509Z,0.60
2022-11-19T23:28:45.841Z,0.63
2022-11-19T23:31:50.080Z,0.77
2022-11-19T23:34:54.040Z,0.60
2022-11-19T23:37:57.431Z,0.80
2022-11-19T23:41:03.490Z,0.45
2022-11-19T23:44:06.838Z,0.70
2022-11-19T23:47:10.524Z,0.77
2022-11-19T23:50:14.447Z,0.80
2022-11-19T23:53:17.940Z,1.00
2022-11-19T23:56:25.438Z,0.80
2022-11-19T23:59:29.178Z,0.68
